Time;durP1;ratioP1;P1;durP2;ratioP2;P2;SDS_P1;SDS_P2;PMS_P1;PMS_P2;Temp;Humidity;BMP_temperature;BMP_pressure;BME280_temperature;BME280_humidity;BME280_pressure;Samples;Min_cycle;Max_cycle;Signal;HPM_P1;HPM_P2
2021/05/02 00:01:17;;;;;;;28.30;16.95;;;10.30;57.40;;;;;;5032362;28;20048;-61
2021/05/02 00:03:43;;;;;;;27.80;17.48;;;10.20;57.40;;;;;;5047135;28;20159;-62
2021/05/02 00:06:11;;;;;;;27.08;17.05;;;10.20;57.50;;;;;;5030105;28;20032;-61
2021/05/02 00:08:38;;;;;;;28.10;16.63;;;10.20;57.50;;;;;;5039121;28;20095;-61
2021/05/02 00:11:06;;;;;;;29.63;17.63;;;10.10;57.50;;;;;;5037830;28;20045;-61
2021/05/02 00:13:33;;;;;;;27.85;16.00;;;10.10;57.60;;;;;;5034911;28;20491;-61
2021/05/02 00:15:59;;;;;;;29.20;17.95;;;10.10;57.70;;;;;;5043283;28;20071;-62
2021/05/02 00:18:27;;;;;;;28.52;16.83;;;10.10;57.80;;;;;;5041602;28;20506;-60
2021/05/02 00:20:54;;;;;;;31.30;16.95;;;10.10;57.90;;;;;;5037702;28;20659;-61
2021/05/02 00:23:25;;;;;;;27.73;16.30;;;10.00;57.90;;;;;;5053359;28;20356;-60
2021/05/02 00:25:51;;;;;;;32.42;15.93;;;10.10;58.00;;;;;;5042586;28;20135;-61
2021/05/02 00:28:20;;;;;;;28.60;16.35;;;10.10;58.00;;;;;;5061396;28;20040;-61
2021/05/02 00:30:48;;;;;;;35.92;17.83;;;10.00;58.00;;;;;;5063335;28;20048;-62
2021/05/02 00:33:15;;;;;;;28.52;17.02;;;10.00;58.10;;;;;;5056236;28;20506;-62
2021/05/02 00:35:43;;;;;;;29.55;17.45;;;10.00;58.80;;;;;;5055914;28;20051;-61
2021/05/02 00:38:09;;;;;;;30.50;17.35;;;10.00;58.20;;;;;;5043755;28;20060;-63
2021/05/02 00:40:39;;;;;;;29.17;16.35;;;10.00;58.20;;;;;;5033860;28;20036;-60
2021/05/02 00:43:07;;;;;;;27.38;16.42;;;9.90;58.10;;;;;;5039589;28;20033;-62
2021/05/02 00:46:08;;;;;;;35.45;17.30;;;9.90;58.20;;;;;;5041772;28;20033;-62
2021/05/02 00:48:37;;;;;;;31.33;17.95;;;9.90;58.30;;;;;;5007164;28;21811;-62
2021/05/02 00:51:06;;;;;;;29.63;18.25;;;10.00;58.60;;;;;;5040832;28;20151;-61
2021/05/02 00:53:56;;;;;;;27.00;15.70;;;10.00;58.80;;;;;;5034952;28;20037;-61
2021/05/02 00:56:24;;;;;;;30.00;16.77;;;10.00;58.70;;;;;;5051994;28;20050;-61
2021/05/02 00:59:16;;;;;;;32.95;17.67;;;10.00;58.70;;;;;;5060569;28;20097;-61
2021/05/02 01:01:45;;;;;;;33.50;17.58;;;10.00;58.70;;;;;;5053686;28;20725;-61
2021/05/02 01:04:11;;;;;;;29.83;18.30;;;10.10;58.80;;;;;;5059698;28;20557;-61
2021/05/02 01:06:39;;;;;;;28.13;17.25;;;10.10;59.00;;;;;;5057098;28;20044;-61
2021/05/02 01:09:06;;;;;;;27.75;15.27;;;10.10;59.00;;;;;;5060848;28;20040;-61
2021/05/02 01:11:35;;;;;;;31.45;17.98;;;10.20;59.00;;;;;;5064243;28;20074;-59
2021/05/02 01:14:03;;;;;;;29.20;16.88;;;10.20;58.90;;;;;;5050005;28;20401;-61
2021/05/02 01:16:33;;;;;;;28.77;16.38;;;10.20;58.80;;;;;;5028542;28;20126;-61
2021/05/02 01:19:03;;;;;;;32.10;18.77;;;10.20;58.80;;;;;;5040421;28;20044;-61
2021/05/02 01:21:33;;;;;;;31.17;18.13;;;10.10;58.80;;;;;;5038212;28;20029;-61
2021/05/02 01:24:05;;;;;;;29.75;18.23;;;10.10;58.80;;;;;;5034748;28;20059;-61
2021/05/02 01:26:30;;;;;;;33.47;17.10;;;10.10;58.80;;;;;;5052967;28;20593;-61
2021/05/02 01:28:59;;;;;;;30.17;17.75;;;10.10;58.90;;;;;;5038327;28;20041;-61
2021/05/02 01:31:27;;;;;;;34.60;18.63;;;10.00;59.00;;;;;;5043729;28;20283;-61
2021/05/02 01:33:54;;;;;;;34.80;19.20;;;10.10;59.20;;;;;;5031340;28;20044;-61
2021/05/02 01:36:19;;;;;;;31.25;16.17;;;10.10;59.40;;;;;;5036804;28;20429;-61
2021/05/02 01:38:47;;;;;;;28.48;17.48;;;10.10;59.40;;;;;;5045335;28;20029;-61
2021/05/02 01:41:13;;;;;;;30.55;17.80;;;10.20;59.40;;;;;;5041909;28;20742;-62
2021/05/02 01:43:41;;;;;;;30.20;17.48;;;10.20;59.40;;;;;;5063556;28;20047;-61
2021/05/02 01:46:13;;;;;;;33.88;19.60;;;10.20;59.40;;;;;;5055984;28;20036;-61
2021/05/02 01:48:39;;;;;;;31.38;18.73;;;10.30;59.60;;;;;;5069082;28;20032;-61
2021/05/02 01:51:10;;;;;;;31.73;18.50;;;10.30;59.70;;;;;;5064219;28;20050;-61
2021/05/02 01:53:39;;;;;;;30.67;18.23;;;10.40;59.80;;;;;;5061572;28;20123;-61
2021/05/02 01:56:07;;;;;;;30.75;17.80;;;10.40;59.80;;;;;;5065943;28;20056;-61
2021/05/02 01:58:35;;;;;;;31.98;17.60;;;10.50;59.90;;;;;;5046253;28;20042;-60
2021/05/02 02:01:06;;;;;;;30.73;18.02;;;10.60;59.90;;;;;;5057354;28;20501;-61
2021/05/02 02:03:35;;;;;;;32.78;18.35;;;10.60;59.80;;;;;;5062299;28;20490;-61
2021/05/02 02:06:01;;;;;;;32.53;19.55;;;10.70;59.90;;;;;;5038134;28;20035;-60
2021/05/02 02:08:27;;;;;;;31.60;18.98;;;10.80;59.90;;;;;;5037455;28;20146;-61
2021/05/02 02:10:55;;;;;;;29.27;18.88;;;10.80;59.90;;;;;;5037026;28;20041;-61
2021/05/02 02:13:21;;;;;;;33.53;18.60;;;10.90;60.00;;;;;;5035544;28;20063;-61
2021/05/02 02:15:48;;;;;;;30.63;18.23;;;10.90;59.80;;;;;;5047641;28;20037;-61
2021/05/02 02:18:17;;;;;;;29.55;18.58;;;10.90;59.60;;;;;;5041568;28;20043;-61
2021/05/02 02:20:51;;;;;;;29.58;17.25;;;11.00;59.50;;;;;;5039759;28;20039;-61
2021/05/02 02:23:24;;;;;;;30.00;17.42;;;11.00;59.40;;;;;;5035077;28;20055;-61
2021/05/02 02:25:50;;;;;;;34.42;19.13;;;10.90;59.40;;;;;;5038338;28;20144;-60
2021/05/02 02:28:18;;;;;;;34.95;18.48;;;10.90;59.50;;;;;;5050510;28;20490;-61
2021/05/02 02:30:49;;;;;;;31.23;18.83;;;10.90;59.60;;;;;;5045651;28;20036;-61
2021/05/02 02:33:16;;;;;;;32.50;18.58;;;10.90;59.80;;;;;;5041454;28;20036;-61
2021/05/02 02:35:50;;;;;;;34.45;19.33;;;11.00;59.90;;;;;;5035602;28;20036;-61
2021/05/02 02:38:19;;;;;;;29.95;18.20;;;11.00;59.90;;;;;;5042491;28;20047;-61
2021/05/02 02:40:49;;;;;;;29.48;17.27;;;11.10;60.00;;;;;;5042073;28;20032;-62
2021/05/02 02:43:28;;;;;;;29.25;17.70;;;11.10;59.90;;;;;;5048525;28;20241;-62
2021/05/02 02:45:57;;;;;;;32.38;18.25;;;11.10;59.80;;;;;;5035547;28;20090;-62
2021/05/02 02:48:33;;;;;;;32.92;19.60;;;11.10;59.80;;;;;;5040167;28;20561;-62
2021/05/02 02:51:03;;;;;;;35.20;19.92;;;11.20;59.90;;;;;;5036873;28;20052;-61
2021/05/02 02:53:32;;;;;;;31.08;19.45;;;11.20;59.90;;;;;;5041112;28;20723;-61
2021/05/02 02:56:04;;;;;;;30.98;18.60;;;11.30;60.00;;;;;;5040651;28;20059;-61
2021/05/02 02:58:36;;;;;;;33.40;19.55;;;11.30;60.00;;;;;;5038032;28;20043;-61
2021/05/02 03:01:06;;;;;;;28.92;18.05;;;11.30;60.00;;;;;;5034793;28;20569;-60
2021/05/02 03:03:33;;;;;;;31.88;19.60;;;11.30;60.00;;;;;;5035588;28;21504;-62
2021/05/02 03:06:02;;;;;;;30.67;18.52;;;11.40;60.00;;;;;;5035179;28;20105;-61
2021/05/02 03:08:30;;;;;;;31.77;18.70;;;11.40;60.00;;;;;;5038979;28;20465;-61
2021/05/02 03:10:57;;;;;;;32.78;18.20;;;11.50;60.00;;;;;;5033367;28;20064;-60
2021/05/02 03:13:22;;;;;;;29.75;18.88;;;11.50;60.10;;;;;;5044612;28;20041;-61
2021/05/02 03:15:49;;;;;;;32.63;19.02;;;11.50;60.10;;;;;;5043887;28;20052;-61
2021/05/02 03:18:23;;;;;;;34.88;18.67;;;11.50;60.20;;;;;;5048616;28;20517;-63
2021/05/02 03:20:58;;;;;;;32.72;19.33;;;11.50;60.20;;;;;;5040530;28;22062;-62
2021/05/02 03:23:32;;;;;;;30.35;17.90;;;11.60;60.30;;;;;;5034760;28;20132;-62
2021/05/02 03:26:04;;;;;;;29.00;17.60;;;11.60;60.30;;;;;;5037134;28;20056;-61
2021/05/02 03:28:52;;;;;;;34.00;18.92;;;11.60;60.20;;;;;;5043589;28;20617;-61
2021/05/02 03:31:24;;;;;;;28.88;16.95;;;11.60;60.20;;;;;;5038266;28;20071;-62
2021/05/02 03:33:56;;;;;;;31.08;17.13;;;11.60;60.10;;;;;;5041355;28;20109;-60
2021/05/02 03:36:42;;;;;;;31.08;18.77;;;11.60;60.20;;;;;;5037272;28;20041;-61
2021/05/02 03:39:12;;;;;;;32.13;16.75;;;11.70;60.00;;;;;;5041254;28;20053;-61
2021/05/02 03:41:38;;;;;;;30.45;17.30;;;11.60;59.90;;;;;;5040646;28;20163;-60
2021/05/02 03:44:06;;;;;;;31.38;17.92;;;11.60;59.90;;;;;;5042621;28;20036;-61
2021/05/02 03:46:34;;;;;;;34.53;17.92;;;11.60;60.00;;;;;;5029183;28;20235;-60
2021/05/02 03:49:03;;;;;;;30.58;17.95;;;11.60;60.00;;;;;;5045239;28;20043;-63
2021/05/02 03:51:31;;;;;;;28.20;16.88;;;11.60;60.00;;;;;;5042122;28;20040;-62
2021/05/02 03:54:02;;;;;;;32.05;18.30;;;11.60;60.00;;;;;;5042716;28;20024;-60
2021/05/02 03:56:31;;;;;;;29.23;17.42;;;11.50;60.00;;;;;;5044090;28;20036;-61
2021/05/02 03:59:19;;;;;;;31.10;17.80;;;11.50;60.00;;;;;;5056047;28;20037;-60
2021/05/02 04:01:52;;;;;;;28.85;17.25;;;11.50;60.00;;;;;;5037340;28;20119;-62
2021/05/02 04:04:22;;;;;;;29.80;16.98;;;11.60;60.10;;;;;;5043977;28;20083;-61
2021/05/02 04:06:48;;;;;;;30.05;16.92;;;11.60;60.00;;;;;;5036845;28;20337;-61
2021/05/02 04:09:15;;;;;;;29.70;17.02;;;11.60;60.00;;;;;;5046981;28;20048;-62
2021/05/02 04:11:42;;;;;;;30.73;17.92;;;11.50;59.90;;;;;;5042904;28;20146;-61
2021/05/02 04:14:11;;;;;;;31.63;16.55;;;11.50;59.80;;;;;;5062752;28;20036;-61
2021/05/02 04:16:37;;;;;;;28.33;16.13;;;11.50;60.00;;;;;;5064225;28;20039;-62
2021/05/02 04:19:05;;;;;;;37.17;18.20;;;11.50;60.00;;;;;;5062536;28;20294;-62
2021/05/02 04:21:31;;;;;;;32.78;18.20;;;11.50;60.00;;;;;;5058962;28;20032;-60
2021/05/02 04:23:59;;;;;;;31.67;18.42;;;11.60;60.00;;;;;;5056561;28;20040;-61
2021/05/02 04:26:25;;;;;;;30.42;17.50;;;11.50;59.80;;;;;;5062833;28;20040;-62
2021/05/02 04:28:55;;;;;;;33.15;17.60;;;11.50;59.80;;;;;;5063074;28;20085;-62
2021/05/02 04:31:20;;;;;;;30.08;18.05;;;11.50;59.80;;;;;;5065513;28;20041;-62
2021/05/02 04:33:47;;;;;;;33.80;18.35;;;11.40;59.90;;;;;;5045276;28;20032;-61
2021/05/02 04:36:13;;;;;;;37.55;19.23;;;11.40;59.90;;;;;;5064174;28;20105;-62
2021/05/02 04:38:39;;;;;;;34.97;18.70;;;11.40;59.90;;;;;;5060568;28;20031;-62
2021/05/02 04:41:05;;;;;;;36.55;18.48;;;11.40;59.90;;;;;;5067846;28;20044;-61
2021/05/02 04:43:30;;;;;;;37.90;19.27;;;11.50;60.20;;;;;;5060083;28;20039;-60
2021/05/02 04:45:58;;;;;;;45.47;23.38;;;11.50;60.40;;;;;;5040373;28;20162;-62
2021/05/02 04:48:24;;;;;;;50.22;24.23;;;11.60;60.50;;;;;;5067047;28;20043;-61
2021/05/02 04:50:50;;;;;;;52.67;23.98;;;11.70;60.70;;;;;;5065855;28;20132;-62
2021/05/02 04:53:15;;;;;;;42.63;22.70;;;11.80;60.80;;;;;;5045957;28;20062;-62
2021/05/02 04:55:43;;;;;;;47.00;24.65;;;11.90;60.80;;;;;;5062623;28;20028;-62
2021/05/02 04:58:09;;;;;;;45.13;25.27;;;12.00;60.90;;;;;;5059405;28;20065;-62
2021/05/02 05:00:37;;;;;;;51.20;25.05;;;12.10;60.90;;;;;;5064785;28;20040;-61
2021/05/02 05:03:05;;;;;;;46.90;25.17;;;12.30;60.90;;;;;;5069343;28;20051;-61
2021/05/02 05:05:36;;;;;;;51.42;26.77;;;12.40;60.90;;;;;;5057294;28;20070;-62
2021/05/02 05:08:06;;;;;;;51.25;27.20;;;12.50;60.60;;;;;;5058517;28;20035;-61
2021/05/02 05:10:34;;;;;;;63.10;28.63;;;12.60;60.30;;;;;;5042909;28;20049;-62
2021/05/02 05:13:01;;;;;;;56.28;27.88;;;12.60;60.10;;;;;;5066331;28;20602;-62
2021/05/02 05:15:26;;;;;;;63.53;28.05;;;12.70;60.20;;;;;;5061408;28;20155;-61
2021/05/02 05:17:54;;;;;;;57.28;28.10;;;12.70;60.20;;;;;;5050425;28;20069;-61
2021/05/02 05:20:22;;;;;;;60.28;27.98;;;12.70;60.10;;;;;;5052762;28;20051;-62
2021/05/02 05:22:48;;;;;;;63.53;28.70;;;12.80;60.10;;;;;;5053350;28;20047;-62
2021/05/02 05:25:14;;;;;;;54.50;28.27;;;12.80;60.00;;;;;;5065594;28;20032;-61
2021/05/02 05:27:40;;;;;;;56.55;29.15;;;12.90;60.10;;;;;;5065739;28;20036;-62
2021/05/02 05:30:06;;;;;;;53.08;26.75;;;12.90;60.00;;;;;;5063641;28;20048;-62
2021/05/02 05:32:37;;;;;;;49.47;25.48;;;12.90;60.10;;;;;;5057952;28;20052;-62
2021/05/02 05:35:03;;;;;;;41.72;24.40;;;13.00;60.20;;;;;;5048639;28;20040;-61
2021/05/02 05:37:29;;;;;;;42.75;23.27;;;13.10;60.00;;;;;;5068683;28;20500;-62
2021/05/02 05:39:55;;;;;;;39.78;23.70;;;13.10;59.90;;;;;;5079383;28;20032;-62
2021/05/02 05:42:20;;;;;;;38.88;21.13;;;13.20;59.80;;;;;;5082055;28;20470;-62
2021/05/02 05:44:46;;;;;;;39.33;20.00;;;13.30;59.60;;;;;;5078961;28;20047;-61
2021/05/02 05:47:12;;;;;;;38.83;19.83;;;13.30;59.20;;;;;;5076732;28;20066;-62
2021/05/02 05:49:41;;;;;;;31.67;18.88;;;13.30;59.00;;;;;;5073816;28;20401;-62
2021/05/02 05:52:12;;;;;;;41.38;18.77;;;13.30;58.90;;;;;;5080982;28;20609;-62
2021/05/02 05:54:43;;;;;;;34.53;19.30;;;13.30;58.80;;;;;;5083387;28;20084;-62
2021/05/02 05:57:09;;;;;;;34.58;18.88;;;13.20;58.80;;;;;;5053134;28;20059;-61
2021/05/02 05:59:34;;;;;;;30.25;17.60;;;13.20;58.90;;;;;;5079063;28;20507;-62
2021/05/02 06:02:00;;;;;;;34.30;17.98;;;13.30;59.10;;;;;;5078960;28;20032;-62
2021/05/02 06:04:25;;;;;;;28.15;17.48;;;13.40;59.20;;;;;;5071562;28;20115;-62
2021/05/02 06:06:54;;;;;;;27.90;16.90;;;13.60;59.70;;;;;;5079022;28;20521;-63
2021/05/02 06:09:22;;;;;;;33.78;17.80;;;14.00;59.60;;;;;;5070081;28;20425;-62
2021/05/02 06:11:48;;;;;;;24.77;15.38;;;14.40;59.10;;;;;;5059174;28;20031;-62
2021/05/02 06:14:13;;;;;;;21.00;13.75;;;14.80;58.50;;;;;;5084072;28;20032;-61
2021/05/02 06:16:39;;;;;;;25.33;14.02;;;15.30;57.60;;;;;;5046599;28;20504;-62
2021/05/02 06:19:07;;;;;;;17.55;12.52;;;15.80;57.50;;;;;;5075615;28;20442;-62
2021/05/02 06:21:33;;;;;;;18.48;12.73;;;16.50;56.10;;;;;;5087123;28;20120;-63
2021/05/02 06:24:00;;;;;;;21.23;12.68;;;16.70;54.40;;;;;;5080580;28;20036;-61
2021/05/02 06:26:26;;;;;;;23.45;13.40;;;16.70;53.80;;;;;;5080409;28;20123;-62
2021/05/02 06:28:54;;;;;;;19.90;12.98;;;16.70;53.60;;;;;;5070639;28;20112;-62
2021/05/02 06:31:20;;;;;;;19.92;12.85;;;16.70;53.40;;;;;;5079319;28;20032;-62
2021/05/02 06:33:51;;;;;;;19.90;13.65;;;16.70;52.90;;;;;;5078771;28;20743;-62
2021/05/02 06:36:16;;;;;;;25.67;15.00;;;16.60;52.30;;;;;;5078533;28;20093;-62
2021/05/02 06:38:42;;;;;;;23.20;15.02;;;16.50;52.00;;;;;;5076461;28;20040;-61
2021/05/02 06:41:08;;;;;;;18.83;13.35;;;16.30;51.90;;;;;;5070873;28;20417;-61
2021/05/02 06:43:36;;;;;;;21.42;14.23;;;16.10;52.20;;;;;;5072502;28;20031;-62
2021/05/02 06:46:06;;;;;;;22.88;13.43;;;15.90;52.40;;;;;;5057695;28;20523;-62
2021/05/02 06:48:34;;;;;;;21.95;12.63;;;15.80;52.40;;;;;;5076149;28;20117;-62
2021/05/02 06:51:04;;;;;;;20.48;12.13;;;15.70;52.70;;;;;;5080165;28;20529;-63
2021/05/02 06:53:32;;;;;;;19.27;11.57;;;15.60;53.10;;;;;;5082668;28;20047;-62
2021/05/02 06:55:58;;;;;;;20.92;11.95;;;15.50;53.40;;;;;;5077653;28;20032;-61
2021/05/02 06:58:26;;;;;;;18.77;10.82;;;15.60;53.40;;;;;;5075747;28;20054;-61
2021/05/02 07:00:54;;;;;;;18.50;11.00;;;15.60;53.20;;;;;;5052464;28;20054;-62
2021/05/02 07:03:22;;;;;;;18.48;10.82;;;15.60;53.20;;;;;;5076972;28;20039;-60
2021/05/02 07:05:50;;;;;;;17.48;9.70;;;15.70;53.40;;;;;;5079607;28;20032;-61
2021/05/02 07:08:16;;;;;;;17.13;9.63;;;15.70;53.20;;;;;;5080254;28;20043;-61
2021/05/02 07:10:41;;;;;;;13.07;8.35;;;15.80;53.00;;;;;;5072729;28;20036;-62
2021/05/02 07:13:07;;;;;;;12.77;8.80;;;15.90;52.60;;;;;;5074342;28;20572;-61
2021/05/02 07:15:32;;;;;;;13.50;7.22;;;15.90;52.30;;;;;;5077809;28;20070;-62
2021/05/02 07:17:58;;;;;;;12.45;7.03;;;15.90;52.30;;;;;;5078952;28;20444;-61
2021/05/02 07:20:23;;;;;;;11.95;6.82;;;16.00;52.10;;;;;;5081323;28;20044;-62
2021/05/02 07:22:54;;;;;;;14.63;6.82;;;16.00;52.10;;;;;;5074410;28;20028;-62
2021/05/02 07:25:23;;;;;;;11.23;6.90;;;16.20;52.10;;;;;;5080080;28;20040;-62
2021/05/02 07:27:51;;;;;;;12.38;6.93;;;16.30;51.20;;;;;;5079908;28;20487;-62
2021/05/02 07:30:19;;;;;;;14.52;7.43;;;16.20;50.90;;;;;;5075600;28;20043;-62
2021/05/02 07:32:47;;;;;;;10.45;6.90;;;16.00;50.80;;;;;;5049618;28;20624;-62
2021/05/02 07:35:15;;;;;;;13.52;6.95;;;15.90;51.10;;;;;;5070812;28;20671;-61
2021/05/02 07:37:41;;;;;;;10.98;6.72;;;15.80;51.10;;;;;;5068080;28;20577;-62
2021/05/02 07:40:10;;;;;;;11.05;6.47;;;15.80;51.30;;;;;;5071467;28;20040;-62
2021/05/02 07:42:37;;;;;;;10.18;6.18;;;15.70;51.60;;;;;;5052212;28;20047;-62
2021/05/02 07:45:03;;;;;;;10.55;7.57;;;15.80;51.70;;;;;;5068106;28;20614;-62
2021/05/02 07:47:29;;;;;;;9.48;6.65;;;16.00;51.10;;;;;;5068583;28;20160;-61
2021/05/02 07:49:57;;;;;;;11.23;6.43;;;16.20;50.20;;;;;;5067924;28;20341;-61
2021/05/02 07:52:23;;;;;;;11.18;7.22;;;16.30;49.80;;;;;;5053277;28;20071;-62
2021/05/02 07:54:48;;;;;;;8.82;6.50;;;16.50;49.00;;;;;;5050940;28;20500;-61
2021/05/02 07:57:19;;;;;;;10.85;7.10;;;16.60;48.80;;;;;;5067243;28;20039;-62
2021/05/02 07:59:47;;;;;;;10.55;5.60;;;16.70;48.80;;;;;;5073971;28;20123;-62
2021/05/02 08:02:12;;;;;;;7.93;6.20;;;16.70;48.00;;;;;;5036944;28;20415;-61
2021/05/02 08:04:38;;;;;;;7.78;4.82;;;16.70;48.00;;;;;;5059404;28;20044;-60
2021/05/02 08:07:06;;;;;;;5.60;4.78;;;16.60;48.00;;;;;;5061097;28;20037;-61
2021/05/02 08:09:36;;;;;;;6.50;4.75;;;16.60;48.00;;;;;;5061924;28;20043;-62
2021/05/02 08:12:03;;;;;;;8.27;4.95;;;16.60;48.00;;;;;;5060279;28;20126;-61
2021/05/02 08:14:29;;;;;;;6.95;5.18;;;16.70;48.20;;;;;;5063014;28;20079;-62
2021/05/02 08:16:55;;;;;;;8.95;4.80;;;16.70;48.00;;;;;;5066417;28;20147;-61
2021/05/02 08:19:23;;;;;;;8.45;4.63;;;16.80;47.90;;;;;;5067548;28;20713;-62
2021/05/02 08:21:49;;;;;;;8.32;4.55;;;16.90;47.90;;;;;;5064026;28;20086;-61
2021/05/02 08:24:17;;;;;;;9.48;4.82;;;16.90;48.00;;;;;;5060116;28;20119;-62
2021/05/02 08:26:45;;;;;;;7.70;4.63;;;16.90;47.50;;;;;;5063042;28;20039;-62
2021/05/02 08:29:13;;;;;;;9.25;4.88;;;17.00;47.50;;;;;;5063346;28;20044;-61
2021/05/02 08:31:43;;;;;;;10.10;4.30;;;16.90;47.20;;;;;;5062394;28;20039;-61
2021/05/02 08:34:09;;;;;;;8.57;4.47;;;16.90;47.10;;;;;;5060935;28;20155;-62
2021/05/02 08:36:34;;;;;;;7.32;4.50;;;16.80;47.00;;;;;;5051416;28;20289;-61
2021/05/02 08:39:00;;;;;;;11.80;5.10;;;16.60;47.10;;;;;;5046022;28;20138;-61
2021/05/02 08:41:28;;;;;;;7.50;4.85;;;16.40;47.10;;;;;;5066128;28;20050;-60
2021/05/02 08:43:57;;;;;;;8.25;4.50;;;16.10;47.30;;;;;;5043213;28;20036;-61
2021/05/02 08:46:24;;;;;;;4.55;3.85;;;16.00;47.30;;;;;;5060557;28;20040;-62
2021/05/02 08:48:53;;;;;;;9.90;4.40;;;15.80;47.40;;;;;;5059429;28;20417;-61
2021/05/02 08:51:18;;;;;;;6.97;3.80;;;15.60;47.60;;;;;;5059208;28;20733;-61
2021/05/02 08:53:44;;;;;;;4.97;3.78;;;15.40;47.90;;;;;;5054799;28;20044;-61
2021/05/02 08:56:12;;;;;;;7.85;3.83;;;15.30;48.00;;;;;;5063493;28;20556;-62
2021/05/02 08:58:38;;;;;;;7.32;4.20;;;15.30;48.20;;;;;;5053458;28;20067;-61
2021/05/02 09:01:04;;;;;;;8.15;4.57;;;15.40;48.40;;;;;;5058887;28;20059;-62
2021/05/02 09:03:46;;;;;;;5.40;3.85;;;15.60;48.50;;;;;;5064184;28;20093;-61
2021/05/02 09:06:29;;;;;;;8.13;4.15;;;16.10;48.40;;;;;;5063926;28;20524;-61
2021/05/02 09:09:03;;;;;;;7.80;4.13;;;16.70;47.30;;;;;;5068211;28;20055;-62
2021/05/02 09:11:52;;;;;;;7.28;4.30;;;17.10;46.10;;;;;;5070248;28;20048;-61
2021/05/02 09:14:18;;;;;;;6.60;4.53;;;17.10;45.10;;;;;;5042401;28;20132;-62
2021/05/02 09:17:13;;;;;;;8.95;4.68;;;17.00;45.10;;;;;;5061126;28;20141;-62
2021/05/02 09:19:49;;;;;;;10.65;5.20;;;16.80;45.40;;;;;;5062436;28;20035;-61
2021/05/02 09:22:18;;;;;;;8.43;4.00;;;16.70;45.60;;;;;;5059497;28;20508;-62
2021/05/02 09:24:59;;;;;;;7.65;3.88;;;16.60;45.90;;;;;;5059315;28;20060;-62
2021/05/02 09:27:28;;;;;;;8.25;4.35;;;16.50;46.20;;;;;;5062912;28;20038;-62
2021/05/02 09:29:54;;;;;;;8.20;4.55;;;16.40;46.20;;;;;;5057524;28;20028;-62
2021/05/02 09:32:39;;;;;;;8.82;3.88;;;16.40;46.50;;;;;;5054469;28;20120;-62
2021/05/02 09:35:23;;;;;;;9.45;4.90;;;16.40;46.50;;;;;;5052786;28;20032;-62
2021/05/02 09:37:51;;;;;;;8.73;4.38;;;16.40;46.80;;;;;;5051071;28;20243;-62
2021/05/02 09:40:21;;;;;;;8.82;3.88;;;16.40;46.70;;;;;;5042210;28;20109;-62
2021/05/02 09:42:49;;;;;;;13.80;4.00;;;16.40;47.10;;;;;;5023471;28;20403;-62
2021/05/02 09:45:17;;;;;;;8.35;4.22;;;16.50;46.80;;;;;;5035271;28;20044;-61
2021/05/02 09:47:47;;;;;;;7.28;4.35;;;16.50;46.60;;;;;;5047250;28;20456;-61
2021/05/02 09:50:25;;;;;;;10.73;4.30;;;16.60;47.20;;;;;;5018905;28;20064;-62
2021/05/02 09:52:57;;;;;;;7.15;4.07;;;16.70;47.20;;;;;;5045083;28;22119;-62
2021/05/02 09:55:34;;;;;;;9.15;3.67;;;16.80;46.80;;;;;;5043918;28;20180;-62
2021/05/02 09:58:06;;;;;;;6.25;3.97;;;16.80;46.10;;;;;;5051416;28;20287;-62
2021/05/02 10:00:38;;;;;;;7.00;4.05;;;16.70;45.80;;;;;;5061951;28;20113;-62
2021/05/02 10:03:09;;;;;;;8.68;4.05;;;16.50;45.70;;;;;;5047527;28;20040;-62
2021/05/02 10:05:36;;;;;;;9.45;3.65;;;16.40;46.30;;;;;;5064150;28;20036;-61
2021/05/02 10:08:05;;;;;;;9.73;4.03;;;16.30;46.80;;;;;;5063602;28;20044;-61
2021/05/02 10:10:36;;;;;;;6.13;3.38;;;16.20;47.20;;;;;;5058186;28;20055;-61
2021/05/02 10:13:01;;;;;;;7.50;3.75;;;16.10;47.60;;;;;;5065657;28;20043;-62
2021/05/02 10:15:27;;;;;;;8.70;3.72;;;16.00;48.10;;;;;;5049684;28;20460;-61
2021/05/02 10:17:53;;;;;;;6.22;3.28;;;15.90;48.40;;;;;;5064709;28;20044;-61
2021/05/02 10:20:24;;;;;;;8.63;3.90;;;15.90;49.20;;;;;;5071763;28;20061;-61
2021/05/02 10:22:52;;;;;;;6.85;3.80;;;15.80;49.20;;;;;;5065980;28;20722;-62
2021/05/02 10:25:20;;;;;;;5.43;3.70;;;15.80;49.10;;;;;;5049550;28;20425;-62
2021/05/02 10:27:49;;;;;;;6.75;3.33;;;15.80;48.90;;;;;;5064061;28;20457;-62
2021/05/02 10:30:31;;;;;;;6.78;3.45;;;15.90;48.80;;;;;;5067530;28;20032;-62
2021/05/02 10:33:05;;;;;;;6.28;3.53;;;15.90;48.80;;;;;;5053067;28;20337;-61
2021/05/02 10:35:53;;;;;;;7.60;3.60;;;16.00;48.90;;;;;;5063284;28;20043;-62
2021/05/02 10:38:55;;;;;;;9.63;3.60;;;16.00;48.60;;;;;;5059329;28;20071;-62
2021/05/02 10:41:31;;;;;;;6.88;3.10;;;16.00;48.20;;;;;;5041129;28;20182;-62
2021/05/02 10:44:18;;;;;;;6.25;3.85;;;16.10;48.40;;;;;;5062844;28;20832;-61
2021/05/02 10:46:44;;;;;;;8.25;3.45;;;16.20;48.10;;;;;;5066187;28;20047;-62
2021/05/02 10:49:22;;;;;;;6.53;2.92;;;16.30;47.70;;;;;;5062444;28;20312;-62
2021/05/02 10:51:55;;;;;;;7.95;3.38;;;16.30;47.50;;;;;;5061686;28;21619;-62
2021/05/02 10:54:23;;;;;;;6.68;2.90;;;16.40;47.60;;;;;;5062894;28;20531;-63
2021/05/02 10:56:52;;;;;;;4.90;3.30;;;16.50;47.40;;;;;;5066760;28;20209;-62
2021/05/02 10:59:21;;;;;;;6.75;2.72;;;16.60;46.90;;;;;;5058824;28;20044;-61
2021/05/02 11:01:49;;;;;;;3.83;2.60;;;16.70;46.80;;;;;;5066099;28;20036;-62
2021/05/02 11:04:14;;;;;;;5.80;2.70;;;16.70;46.60;;;;;;5063927;28;20040;-62
2021/05/02 11:06:42;;;;;;;4.90;2.97;;;16.80;46.10;;;;;;5066324;28;20108;-62
2021/05/02 11:09:18;;;;;;;4.63;2.50;;;16.70;46.00;;;;;;5054409;28;20072;-62
2021/05/02 11:11:49;;;;;;;6.30;2.47;;;16.80;46.40;;;;;;5061879;28;20036;-62
2021/05/02 11:14:21;;;;;;;8.60;2.55;;;16.80;45.80;;;;;;5064065;28;20208;-61
2021/05/02 11:16:48;;;;;;;6.20;2.42;;;16.90;45.70;;;;;;5057721;28;20081;-61
2021/05/02 11:19:22;;;;;;;5.65;2.50;;;17.00;45.50;;;;;;5050523;28;20446;-62
2021/05/02 11:21:51;;;;;;;4.88;2.30;;;17.10;45.20;;;;;;5063564;28;20032;-62
2021/05/02 11:24:25;;;;;;;6.57;1.85;;;17.10;44.70;;;;;;5066756;28;20162;-62
2021/05/02 11:32:38;;;;;;;9.65;2.50;;;16.70;44.80;;;;;;5056322;28;20383;-62
2021/05/02 11:35:08;;;;;;;4.03;2.05;;;16.50;45.20;;;;;;5063592;28;20089;-61
2021/05/02 11:37:41;;;;;;;8.35;2.05;;;16.30;45.90;;;;;;5054760;28;20038;-62
2021/05/02 11:40:33;;;;;;;5.07;2.00;;;16.10;46.60;;;;;;5049995;28;20376;-61
2021/05/02 11:43:16;;;;;;;5.55;2.13;;;16.10;47.00;;;;;;5053669;28;20047;-61
2021/05/02 11:45:52;;;;;;;5.35;2.28;;;16.10;47.20;;;;;;5055201;28;20032;-62
2021/05/02 11:48:27;;;;;;;3.63;1.80;;;16.40;47.30;;;;;;5058452;28;20043;-62
2021/05/02 11:51:16;;;;;;;6.47;2.40;;;16.70;47.10;;;;;;5051345;28;20062;-62
2021/05/02 11:53:47;;;;;;;3.83;2.05;;;16.90;46.50;;;;;;5036938;28;20163;-62
2021/05/02 11:56:26;;;;;;;3.30;2.22;;;17.10;45.30;;;;;;5052402;28;20461;-61
2021/05/02 11:58:54;;;;;;;5.32;2.00;;;17.00;44.80;;;;;;5045896;28;20105;-62
2021/05/02 12:01:24;;;;;;;4.07;1.83;;;16.80;44.20;;;;;;5043627;28;20524;-62
2021/05/02 12:03:51;;;;;;;5.60;2.05;;;16.60;44.70;;;;;;5056581;28;20044;-62
2021/05/02 12:06:31;;;;;;;3.67;2.38;;;16.50;45.40;;;;;;5054296;28;20402;-62
2021/05/02 12:08:58;;;;;;;4.72;2.35;;;16.50;45.10;;;;;;5052952;28;20150;-62
2021/05/02 12:11:25;;;;;;;6.97;2.10;;;16.40;45.40;;;;;;5051830;28;20044;-62
2021/05/02 12:13:54;;;;;;;4.38;2.20;;;16.50;45.60;;;;;;5054527;28;20032;-62
2021/05/02 12:16:26;;;;;;;4.15;1.88;;;16.50;45.50;;;;;;5054582;28;20036;-62
2021/05/02 12:19:07;;;;;;;3.40;1.40;;;16.40;45.30;;;;;;5050277;28;20144;-63
2021/05/02 12:21:38;;;;;;;3.88;1.83;;;16.10;45.40;;;;;;5053002;28;20612;-62
2021/05/02 12:24:11;;;;;;;2.38;1.65;;;15.70;46.30;;;;;;5059919;28;20092;-61
2021/05/02 12:26:45;;;;;;;2.30;1.70;;;15.30;47.10;;;;;;5054516;28;20060;-61
2021/05/02 12:29:13;;;;;;;7.68;1.88;;;15.10;48.10;;;;;;5046872;28;20146;-62
2021/05/02 12:31:39;;;;;;;4.45;2.20;;;14.90;48.90;;;;;;5052684;28;20410;-63
2021/05/02 12:34:09;;;;;;;5.35;2.20;;;14.80;49.70;;;;;;5025803;28;20070;-62
2021/05/02 12:36:37;;;;;;;9.25;2.60;;;14.80;50.60;;;;;;5054959;28;20930;-62
2021/05/02 12:39:16;;;;;;;4.82;2.53;;;14.90;51.30;;;;;;5048084;28;20379;-62
2021/05/02 12:41:42;;;;;;;4.47;2.08;;;15.10;51.50;;;;;;5046141;28;20448;-62
2021/05/02 12:44:22;;;;;;;7.10;2.33;;;15.30;51.10;;;;;;5054562;28;20036;-62
2021/05/02 12:46:50;;;;;;;5.45;2.28;;;15.40;51.20;;;;;;5047553;28;20044;-61
2021/05/02 12:49:20;;;;;;;6.53;2.40;;;15.50;50.60;;;;;;5050548;28;20690;-63
2021/05/02 12:51:53;;;;;;;5.53;2.05;;;15.50;50.30;;;;;;5034106;28;20043;-62
2021/05/02 12:54:21;;;;;;;6.95;2.00;;;15.60;50.10;;;;;;5034073;28;20039;-62